Time;durP1;ratioP1;P1;durP2;ratioP2;P2;SDS_P1;SDS_P2;PMS_P1;PMS_P2;Temp;Humidity;BMP_temperature;BMP_pressure;BME280_temperature;BME280_humidity;BME280_pressure;Samples;Min_cycle;Max_cycle;Signal;HPM_P1;HPM_P2
2023/06/24 00:01:40;;;;;;;;;;;19.20;99.90;;;;;;5021375;28;19912;-80
2023/06/24 00:04:06;;;;;;;;;;;19.20;99.90;;;;;;5005543;28;19956;-79
2023/06/24 00:06:31;;;;;;;;;;;19.20;99.90;;;;;;5001604;28;20019;-79
2023/06/24 00:09:00;;;;;;;;;;;19.10;99.90;;;;;;5023011;28;20975;-79
2023/06/24 00:11:26;;;;;;;;;;;19.10;99.90;;;;;;5001519;28;19909;-79
2023/06/24 00:13:51;;;;;;;;;;;19.10;99.90;;;;;;5038869;28;20056;-80
2023/06/24 00:16:17;;;;;;;;;;;19.00;99.90;;;;;;5006071;28;20333;-80
2023/06/24 00:18:42;;;;;;;;;;;19.00;99.90;;;;;;5006970;28;19971;-78
2023/06/24 00:21:08;;;;;;;;;;;19.00;99.90;;;;;;5000836;28;19920;-80
2023/06/24 00:23:34;;;;;;;;;;;19.00;99.90;;;;;;5022283;28;19913;-79
2023/06/24 00:26:00;;;;;;;;;;;19.00;99.90;;;;;;5002549;28;19913;-79
2023/06/24 00:28:25;;;;;;;;;;;19.00;99.90;;;;;;5001647;28;19923;-79
2023/06/24 00:30:52;;;;;;;;;;;18.90;99.90;;;;;;5003010;28;20000;-79
2023/06/24 00:33:19;;;;;;;;;;;19.00;99.90;;;;;;5022066;28;22379;-79
2023/06/24 00:35:45;;;;;;;;;;;19.00;99.90;;;;;;5021448;28;19917;-79
2023/06/24 00:38:10;;;;;;;;;;;19.00;99.90;;;;;;5016814;28;19913;-79
2023/06/24 00:40:37;;;;;;;;;;;19.00;99.90;;;;;;5022457;28;19921;-79
2023/06/24 00:43:04;;;;;;;;;;;19.10;99.90;;;;;;4999285;28;19920;-79
2023/06/24 00:45:30;;;;;;;;;;;19.00;99.90;;;;;;5005882;28;19909;-79
2023/06/24 00:47:56;;;;;;;;;;;19.10;99.90;;;;;;4999824;28;20629;-79
2023/06/24 00:50:22;;;;;;;;;;;19.10;99.90;;;;;;4999429;28;20464;-79
2023/06/24 00:52:49;;;;;;;;;;;19.10;99.90;;;;;;5022354;28;19917;-79
2023/06/24 00:55:15;;;;;;;;;;;19.10;99.90;;;;;;5000947;28;19913;-79
2023/06/24 00:57:50;;;;;;;;;;;19.20;99.90;;;;;;5000480;28;19913;-79
2023/06/24 01:00:18;;;;;;;;;;;19.20;99.90;;;;;;5006136;28;19940;-79
2023/06/24 01:02:44;;;;;;;;;;;19.20;99.90;;;;;;5023913;28;19983;-79
2023/06/24 01:05:11;;;;;;;;;;;19.10;99.90;;;;;;5000763;28;19959;-80
2023/06/24 01:07:40;;;;;;;;;;;19.10;99.90;;;;;;5023356;28;20304;-79
2023/06/24 01:10:06;;;;;;;;;;;19.00;99.90;;;;;;5022624;28;20110;-79
2023/06/24 01:12:38;;;;;;;;;;;18.90;99.90;;;;;;5038600;28;19919;-79
2023/06/24 01:15:05;;;;;;;;;;;18.90;99.90;;;;;;5022855;28;19917;-80
2023/06/24 01:17:36;;;;;;;;;;;18.80;99.90;;;;;;5038352;28;19921;-79
2023/06/24 01:20:14;;;;;;;;;;;18.70;99.90;;;;;;4999553;28;19963;-79
2023/06/24 01:22:46;;;;;;;;;;;18.70;99.90;;;;;;5023044;28;19956;-79
2023/06/24 01:25:30;;;;;;;;;;;18.70;99.90;;;;;;5038955;28;19916;-79
2023/06/24 01:28:15;;;;;;;;;;;18.60;99.90;;;;;;5037570;28;20471;-79
2023/06/24 01:30:43;;;;;;;;;;;18.50;99.90;;;;;;5022904;28;19920;-80
2023/06/24 01:33:10;;;;;;;;;;;18.50;99.90;;;;;;5022703;28;21033;-79
2023/06/24 01:35:36;;;;;;;;;;;18.40;99.90;;;;;;5023559;28;19913;-79
2023/06/24 01:38:07;;;;;;;;;;;18.40;99.90;;;;;;5022182;28;19999;-79
2023/06/24 01:40:37;;;;;;;;;;;18.40;99.90;;;;;;5038110;28;19917;-79
2023/06/24 01:43:04;;;;;;;;;;;18.40;99.90;;;;;;5021958;28;20423;-79
2023/06/24 01:45:36;;;;;;;;;;;18.40;99.90;;;;;;5022899;28;19924;-79
2023/06/24 01:48:06;;;;;;;;;;;18.40;99.90;;;;;;5037919;28;19996;-80
2023/06/24 01:50:32;;;;;;;;;;;18.40;99.90;;;;;;5037794;28;19921;-79
2023/06/24 01:53:00;;;;;;;;;;;18.40;99.90;;;;;;4999051;28;19917;-79
2023/06/24 01:55:26;;;;;;;;;;;18.50;99.90;;;;;;5037397;28;19915;-79
2023/06/24 01:57:53;;;;;;;;;;;18.50;99.90;;;;;;5018193;28;19909;-79
2023/06/24 02:00:19;;;;;;;;;;;18.50;99.90;;;;;;5001285;28;19931;-79
2023/06/24 02:02:46;;;;;;;;;;;18.50;99.90;;;;;;5005293;28;19916;-80
2023/06/24 02:05:12;;;;;;;;;;;18.50;99.90;;;;;;5022968;28;19994;-78
2023/06/24 02:07:38;;;;;;;;;;;18.50;99.90;;;;;;5020252;28;20390;-79
2023/06/24 02:10:05;;;;;;;;;;;18.50;99.90;;;;;;5003868;28;19913;-80
2023/06/24 02:12:32;;;;;;;;;;;18.50;99.90;;;;;;4999715;28;19919;-80
2023/06/24 02:14:58;;;;;;;;;;;18.50;99.90;;;;;;4999718;28;19913;-79
2023/06/24 02:17:25;;;;;;;;;;;18.50;99.90;;;;;;5018299;28;19963;-79
2023/06/24 02:19:52;;;;;;;;;;;18.50;99.90;;;;;;5021582;28;20067;-80
2023/06/24 02:22:18;;;;;;;;;;;18.50;99.90;;;;;;5018756;28;19945;-79
2023/06/24 02:24:45;;;;;;;;;;;18.50;99.90;;;;;;5018372;28;20377;-80
2023/06/24 02:27:11;;;;;;;;;;;18.50;99.90;;;;;;5021867;28;19920;-79
2023/06/24 02:29:38;;;;;;;;;;;18.40;99.90;;;;;;5004248;28;19921;-79
2023/06/24 02:32:04;;;;;;;;;;;18.30;99.90;;;;;;5021278;28;19955;-79
2023/06/24 02:34:29;;;;;;;;;;;18.30;99.90;;;;;;4998184;28;19920;-79
2023/06/24 02:36:55;;;;;;;;;;;18.20;99.90;;;;;;5021297;28;20373;-79
2023/06/24 02:39:20;;;;;;;;;;;18.20;99.90;;;;;;5004174;28;20312;-79
2023/06/24 02:41:47;;;;;;;;;;;18.10;99.90;;;;;;4997577;28;19913;-79
2023/06/24 02:44:13;;;;;;;;;;;18.10;99.90;;;;;;5020223;28;20438;-79
2023/06/24 02:46:39;;;;;;;;;;;18.00;99.90;;;;;;5003655;28;19925;-79
2023/06/24 02:49:05;;;;;;;;;;;18.00;99.90;;;;;;5021532;28;19916;-78
2023/06/24 02:51:31;;;;;;;;;;;18.00;99.90;;;;;;5034205;28;19913;-79
2023/06/24 02:53:58;;;;;;;;;;;18.00;99.90;;;;;;4997692;28;19920;-79
2023/06/24 02:56:24;;;;;;;;;;;17.90;99.90;;;;;;5021522;28;19913;-79
2023/06/24 02:58:52;;;;;;;;;;;17.80;99.90;;;;;;4998943;28;19932;-79
2023/06/24 03:01:18;;;;;;;;;;;17.80;99.90;;;;;;4999462;28;20436;-79
2023/06/24 03:03:49;;;;;;;;;;;17.80;99.90;;;;;;5021340;28;19916;-79
2023/06/24 03:06:17;;;;;;;;;;;17.80;99.90;;;;;;5016962;28;19917;-79
2023/06/24 03:08:43;;;;;;;;;;;17.80;99.90;;;;;;4998484;28;20376;-80
2023/06/24 03:11:12;;;;;;;;;;;17.70;99.90;;;;;;5021812;28;20269;-79
2023/06/24 03:13:37;;;;;;;;;;;17.70;99.90;;;;;;5021184;28;20394;-80
2023/06/24 03:16:03;;;;;;;;;;;17.70;99.90;;;;;;5001209;28;19925;-80
2023/06/24 03:18:28;;;;;;;;;;;17.70;99.90;;;;;;5021637;28;19920;-79
2023/06/24 03:20:54;;;;;;;;;;;17.70;99.90;;;;;;5021364;28;20350;-80
2023/06/24 03:23:19;;;;;;;;;;;17.70;99.90;;;;;;4998797;28;19909;-79
2023/06/24 03:25:45;;;;;;;;;;;17.70;99.90;;;;;;4998935;28;19917;-80
2023/06/24 03:28:11;;;;;;;;;;;17.60;99.90;;;;;;4998524;28;19968;-79
2023/06/24 03:30:38;;;;;;;;;;;17.60;99.90;;;;;;5000202;28;20246;-78
2023/06/24 03:33:03;;;;;;;;;;;17.60;99.90;;;;;;4998162;28;19948;-79
2023/06/24 03:35:31;;;;;;;;;;;17.60;99.90;;;;;;5001207;28;19952;-80
2023/06/24 03:37:57;;;;;;;;;;;17.50;99.90;;;;;;5015106;28;19913;-79
2023/06/24 03:40:22;;;;;;;;;;;17.50;99.90;;;;;;5000240;28;19917;-79
2023/06/24 03:42:48;;;;;;;;;;;17.50;99.90;;;;;;5018295;28;20261;-79
2023/06/24 03:45:13;;;;;;;;;;;17.50;99.90;;;;;;5022038;28;19913;-80
2023/06/24 03:47:39;;;;;;;;;;;17.50;99.90;;;;;;4997077;28;19920;-79
2023/06/24 03:50:05;;;;;;;;;;;17.50;99.90;;;;;;5019369;28;19927;-80
2023/06/24 03:52:30;;;;;;;;;;;17.50;99.90;;;;;;4999186;28;19924;-79
2023/06/24 03:54:56;;;;;;;;;;;17.40;99.90;;;;;;4994866;28;19920;-79
2023/06/24 03:57:22;;;;;;;;;;;17.40;99.90;;;;;;4997990;28;19916;-78
2023/06/24 03:59:48;;;;;;;;;;;17.40;99.90;;;;;;5001193;28;19917;-79
2023/06/24 04:02:13;;;;;;;;;;;17.40;99.90;;;;;;4998820;28;19963;-79
2023/06/24 04:04:39;;;;;;;;;;;17.40;99.90;;;;;;5021627;28;19920;-80
2023/06/24 04:07:08;;;;;;;;;;;17.40;99.90;;;;;;4998522;28;19913;-79
2023/06/24 04:09:36;;;;;;;;;;;17.50;99.90;;;;;;5002259;28;20281;-80
2023/06/24 04:12:02;;;;;;;;;;;17.50;99.90;;;;;;5005853;28;19909;-80
2023/06/24 04:14:29;;;;;;;;;;;17.50;99.90;;;;;;5006965;28;19968;-79
2023/06/24 04:16:54;;;;;;;;;;;17.50;99.90;;;;;;4999670;28;19917;-80
2023/06/24 04:19:20;;;;;;;;;;;17.60;99.90;;;;;;5001683;28;20337;-80
2023/06/24 04:21:45;;;;;;;;;;;17.60;99.90;;;;;;5038672;28;19912;-79
2023/06/24 04:24:11;;;;;;;;;;;17.60;99.90;;;;;;5006488;28;19924;-80
2023/06/24 04:26:36;;;;;;;;;;;17.60;99.90;;;;;;5001476;28;19943;-80
2023/06/24 04:29:02;;;;;;;;;;;17.70;99.90;;;;;;5023927;28;19917;-80
2023/06/24 04:31:28;;;;;;;;;;;17.70;99.90;;;;;;5023477;28;19916;-79
2023/06/24 04:33:53;;;;;;;;;;;17.70;99.90;;;;;;5005426;28;20096;-80
2023/06/24 04:36:20;;;;;;;;;;;17.70;99.90;;;;;;5002909;28;19913;-79
2023/06/24 04:38:47;;;;;;;;;;;17.80;99.90;;;;;;5024124;28;20269;-78
2023/06/24 04:41:13;;;;;;;;;;;17.80;99.90;;;;;;5001737;28;20043;-79
2023/06/24 04:43:40;;;;;;;;;;;17.80;99.90;;;;;;5004056;28;19913;-79
2023/06/24 04:46:05;;;;;;;;;;;17.90;99.90;;;;;;5003390;28;19913;-79
2023/06/24 04:48:31;;;;;;;;;;;17.90;99.90;;;;;;5000090;28;19913;-79
2023/06/24 04:50:57;;;;;;;;;;;17.90;99.90;;;;;;5018675;28;19920;-79
2023/06/24 04:53:23;;;;;;;;;;;18.00;99.90;;;;;;5006524;28;20325;-80
2023/06/24 04:55:50;;;;;;;;;;;18.10;99.90;;;;;;5023576;28;19929;-79
2023/06/24 04:58:15;;;;;;;;;;;18.10;99.90;;;;;;5002056;28;20316;-79
2023/06/24 05:00:41;;;;;;;;;;;18.20;99.90;;;;;;5000169;28;20000;-79
2023/06/24 05:03:10;;;;;;;;;;;18.30;99.90;;;;;;4998742;28;19935;-80
2023/06/24 05:05:36;;;;;;;;;;;18.30;99.90;;;;;;5022508;28;19913;-80
2023/06/24 05:08:01;;;;;;;;;;;18.40;99.90;;;;;;5005481;28;19927;-79
2023/06/24 05:10:27;;;;;;;;;;;18.50;99.90;;;;;;5000355;28;19962;-79
2023/06/24 05:12:52;;;;;;;;;;;18.60;99.90;;;;;;5023176;28;19959;-80
2023/06/24 05:15:18;;;;;;;;;;;18.60;99.90;;;;;;5001510;28;20269;-80
2023/06/24 05:17:44;;;;;;;;;;;18.60;99.90;;;;;;5000457;28;19913;-79
2023/06/24 05:20:10;;;;;;;;;;;18.70;99.90;;;;;;5003804;28;19909;-79
2023/06/24 05:22:36;;;;;;;;;;;18.70;99.90;;;;;;4998515;28;19936;-79
2023/06/24 05:25:02;;;;;;;;;;;18.80;99.90;;;;;;5022560;28;20572;-80
2023/06/24 05:27:28;;;;;;;;;;;18.80;99.90;;;;;;5023230;28;19925;-80
2023/06/24 05:29:53;;;;;;;;;;;18.90;99.90;;;;;;5000773;28;19932;-80
2023/06/24 05:32:20;;;;;;;;;;;18.90;99.90;;;;;;5001137;28;19913;-80
2023/06/24 05:34:47;;;;;;;;;;;19.00;99.90;;;;;;5005985;28;19913;-79
2023/06/24 05:37:15;;;;;;;;;;;19.00;99.90;;;;;;5022063;28;19909;-79
2023/06/24 05:39:40;;;;;;;;;;;19.10;99.90;;;;;;4999280;28;20039;-79
2023/06/24 05:42:06;;;;;;;;;;;19.20;99.90;;;;;;5004845;28;20023;-79
2023/06/24 05:44:32;;;;;;;;;;;19.20;99.90;;;;;;5001116;28;19916;-79
2023/06/24 05:46:57;;;;;;;;;;;19.30;99.90;;;;;;5002590;28;19932;-79
2023/06/24 05:49:22;;;;;;;;;;;19.30;99.90;;;;;;5035716;28;20055;-79
2023/06/24 05:51:48;;;;;;;;;;;19.30;99.90;;;;;;5002466;28;20530;-79
2023/06/24 05:54:14;;;;;;;;;;;19.40;99.90;;;;;;5015429;28;19963;-79
2023/06/24 05:56:40;;;;;;;;;;;19.40;99.90;;;;;;5021961;28;20313;-80
2023/06/24 05:59:06;;;;;;;;;;;19.50;99.90;;;;;;5021550;28;19947;-80
2023/06/24 06:01:32;;;;;;;;;;;19.50;99.90;;;;;;5018874;28;19944;-80
2023/06/24 06:03:57;;;;;;;;;;;19.60;99.90;;;;;;4998940;28;19912;-79
2023/06/24 06:06:23;;;;;;;;;;;19.70;99.90;;;;;;5003711;28;20483;-79
2023/06/24 06:08:49;;;;;;;;;;;19.70;99.90;;;;;;5021631;28;19943;-79
2023/06/24 06:11:14;;;;;;;;;;;19.80;99.90;;;;;;5004754;28;19916;-79
2023/06/24 06:13:40;;;;;;;;;;;19.80;99.90;;;;;;5003888;28;19920;-80
2023/06/24 06:16:09;;;;;;;;;;;19.90;99.90;;;;;;5022227;28;19920;-79
2023/06/24 06:18:34;;;;;;;;;;;19.90;99.90;;;;;;5004594;28;19928;-79
2023/06/24 06:21:01;;;;;;;;;;;19.90;99.90;;;;;;4998096;28;19909;-79
2023/06/24 06:23:27;;;;;;;;;;;19.90;99.90;;;;;;4997181;28;20747;-79
2023/06/24 06:25:53;;;;;;;;;;;20.00;99.90;;;;;;5001144;28;20368;-79
2023/06/24 06:28:19;;;;;;;;;;;20.00;99.90;;;;;;5002900;28;19920;-79
2023/06/24 06:30:44;;;;;;;;;;;20.00;99.90;;;;;;4997790;28;20510;-79
2023/06/24 06:33:10;;;;;;;;;;;20.10;99.90;;;;;;5002185;28;19920;-79
2023/06/24 06:35:35;;;;;;;;;;;20.10;99.90;;;;;;5003146;28;19920;-79
2023/06/24 06:38:01;;;;;;;;;;;20.20;99.90;;;;;;5018713;28;19909;-79
2023/06/24 06:40:28;;;;;;;;;;;20.20;99.90;;;;;;5018958;28;19913;-80
2023/06/24 06:42:53;;;;;;;;;;;20.20;99.90;;;;;;4998261;28;19953;-79
2023/06/24 06:45:19;;;;;;;;;;;20.30;99.90;;;;;;5003153;28;19956;-79
2023/06/24 06:47:45;;;;;;;;;;;20.30;99.90;;;;;;5020784;28;19913;-80
2023/06/24 06:50:11;;;;;;;;;;;20.40;99.90;;;;;;5020818;28;19956;-79
2023/06/24 06:52:39;;;;;;;;;;;20.40;99.90;;;;;;4996104;28;19913;-79
2023/06/24 06:55:04;;;;;;;;;;;20.40;99.90;;;;;;5020294;28;19913;-80
2023/06/24 06:57:30;;;;;;;;;;;20.40;99.90;;;;;;5017656;28;20797;-80
2023/06/24 06:59:56;;;;;;;;;;;20.50;99.90;;;;;;5035259;28;19960;-80
2023/06/24 07:02:21;;;;;;;;;;;20.50;99.90;;;;;;5034896;28;19991;-80
2023/06/24 07:04:47;;;;;;;;;;;20.60;99.90;;;;;;5033744;28;20304;-80
2023/06/24 07:07:14;;;;;;;;;;;20.60;99.90;;;;;;5020115;28;20051;-80
2023/06/24 07:09:39;;;;;;;;;;;20.60;99.90;;;;;;4999302;28;19917;-80
2023/06/24 07:12:08;;;;;;;;;;;20.70;99.90;;;;;;5017670;28;19913;-80
2023/06/24 07:14:38;;;;;;;;;;;20.70;99.90;;;;;;5020252;28;19917;-80
2023/06/24 07:17:03;;;;;;;;;;;20.80;99.90;;;;;;5019327;28;19944;-80
2023/06/24 07:19:31;;;;;;;;;;;20.80;99.90;;;;;;5018763;28;19956;-80
2023/06/24 07:21:59;;;;;;;;;;;20.80;99.90;;;;;;4997940;28;19924;-80
2023/06/24 07:24:28;;;;;;;;;;;20.90;99.90;;;;;;4998509;28;20474;-80
2023/06/24 07:26:53;;;;;;;;;;;20.90;99.90;;;;;;4994276;28;19913;-80
2023/06/24 07:29:23;;;;;;;;;;;20.90;99.90;;;;;;5034084;28;19921;-80
2023/06/24 07:31:49;;;;;;;;;;;20.90;99.90;;;;;;5014767;28;19913;-79
2023/06/24 07:34:14;;;;;;;;;;;20.90;99.90;;;;;;4996970;28;19935;-81
2023/06/24 07:36:40;;;;;;;;;;;21.00;99.90;;;;;;5035938;28;19917;-80
2023/06/24 07:39:08;;;;;;;;;;;21.10;99.90;;;;;;4997683;28;19920;-79
2023/06/24 07:41:34;;;;;;;;;;;21.10;99.90;;;;;;5019429;28;19917;-80
2023/06/24 07:44:00;;;;;;;;;;;21.20;99.90;;;;;;5005339;28;20035;-80
2023/06/24 07:46:27;;;;;;;;;;;21.30;99.90;;;;;;5024415;28;19921;-80
2023/06/24 07:48:53;;;;;;;;;;;21.40;99.90;;;;;;5022092;28;19956;-79
2023/06/24 07:51:18;;;;;;;;;;;21.40;99.90;;;;;;5006197;28;20071;-80
2023/06/24 07:53:44;;;;;;;;;;;21.50;99.90;;;;;;5021125;28;19913;-80
2023/06/24 07:56:14;;;;;;;;;;;21.60;99.90;;;;;;5006141;28;19992;-79
2023/06/24 07:58:43;;;;;;;;;;;21.60;99.90;;;;;;5001759;28;19996;-80
2023/06/24 08:01:11;;;;;;;;;;;21.70;99.90;;;;;;5000731;28;19923;-79
2023/06/24 08:03:37;;;;;;;;;;;21.70;99.90;;;;;;5000808;28;19912;-80
2023/06/24 08:06:04;;;;;;;;;;;21.70;99.90;;;;;;5022708;28;20269;-79
2023/06/24 08:08:29;;;;;;;;;;;21.70;99.90;;;;;;5004404;28;19932;-80
2023/06/24 08:10:55;;;;;;;;;;;21.80;99.90;;;;;;5005307;28;19913;-80
2023/06/24 08:13:23;;;;;;;;;;;21.90;99.90;;;;;;4998818;28;19909;-80
2023/06/24 08:15:49;;;;;;;;;;;22.00;99.90;;;;;;5020442;28;19951;-80
2023/06/24 08:18:16;;;;;;;;;;;22.00;99.90;;;;;;5005768;28;19909;-80
2023/06/24 08:20:42;;;;;;;;;;;22.10;99.90;;;;;;5000205;28;19919;-79
2023/06/24 08:23:09;;;;;;;;;;;22.00;99.90;;;;;;5005282;28;19917;-79
2023/06/24 08:25:35;;;;;;;;;;;22.10;99.90;;;;;;5021749;28;19913;-80
2023/06/24 08:28:00;;;;;;;;;;;22.20;99.90;;;;;;4999455;28;19924;-80
2023/06/24 08:30:26;;;;;;;;;;;22.30;99.90;;;;;;5023054;28;19987;-81
2023/06/24 08:32:51;;;;;;;;;;;22.40;99.90;;;;;;5002022;28;20447;-79
2023/06/24 08:35:17;;;;;;;;;;;22.60;99.90;;;;;;5023121;28;19956;-80
2023/06/24 08:37:42;;;;;;;;;;;22.70;99.90;;;;;;4999779;28;19909;-80
2023/06/24 08:40:08;;;;;;;;;;;22.80;99.90;;;;;;5021236;28;19917;-80
2023/06/24 08:42:34;;;;;;;;;;;22.90;99.90;;;;;;5023825;28;20486;-80
2023/06/24 08:44:59;;;;;;;;;;;23.00;99.90;;;;;;4997382;28;20357;-80
2023/06/24 08:47:27;;;;;;;;;;;23.10;99.90;;;;;;4999883;28;19931;-80
2023/06/24 08:50:10;;;;;;;;;;;23.30;99.90;;;;;;5022500;28;19967;-79
2023/06/24 08:52:42;;;;;;;;;;;23.40;99.90;;;;;;5022945;28;19963;-80
2023/06/24 08:55:11;;;;;;;;;;;23.50;99.90;;;;;;5034418;28;20288;-79
2023/06/24 08:57:37;;;;;;;;;;;23.60;99.90;;;;;;5020226;28;20395;-80
2023/06/24 09:00:04;;;;;;;;;;;23.70;99.90;;;;;;5021062;28;20254;-79
2023/06/24 09:02:32;;;;;;;;;;;23.80;99.90;;;;;;5005159;28;19920;-79
2023/06/24 09:05:05;;;;;;;;;;;24.00;99.90;;;;;;5020982;28;19917;-80
2023/06/24 09:07:33;;;;;;;;;;;24.20;99.90;;;;;;5020204;28;19920;-80
2023/06/24 09:10:05;;;;;;;;;;;24.40;99.90;;;;;;4998383;28;19913;-80
2023/06/24 09:12:34;;;;;;;;;;;24.70;99.90;;;;;;4999265;28;20365;-80
2023/06/24 09:15:06;;;;;;;;;;;25.00;99.90;;;;;;5021037;28;19916;-80
2023/06/24 09:17:47;;;;;;;;;;;25.30;99.90;;;;;;5021240;28;19921;-80
2023/06/24 09:20:21;;;;;;;;;;;25.60;99.90;;;;;;4996424;28;20084;-79
2023/06/24 09:22:57;;;;;;;;;;;25.80;99.90;;;;;;5004037;28;20080;-78
2023/06/24 09:25:28;;;;;;;;;;;25.90;99.90;;;;;;5005514;28;19986;-80
2023/06/24 09:28:06;;;;;;;;;;;26.00;99.90;;;;;;5001683;28;20373;-80
2023/06/24 09:30:37;;;;;;;;;;;26.10;99.90;;;;;;5022076;28;19952;-79
2023/06/24 09:33:12;;;;;;;;;;;26.40;99.90;;;;;;5021418;28;19956;-79
2023/06/24 09:35:57;;;;;;;;;;;26.50;99.90;;;;;;5021866;28;19918;-79
2023/06/24 09:38:37;;;;;;;;;;;26.70;99.90;;;;;;5019579;28;20372;-80
2023/06/24 09:41:17;;;;;;;;;;;26.90;99.90;;;;;;5033046;28;19913;-80
2023/06/24 09:43:44;;;;;;;;;;;27.20;99.90;;;;;;5000030;28;19956;-79
2023/06/24 09:46:11;;;;;;;;;;;27.40;99.90;;;;;;5001855;28;19921;-79
2023/06/24 09:48:41;;;;;;;;;;;27.50;99.90;;;;;;5022098;28;19927;-80
2023/06/24 09:51:17;;;;;;;;;;;27.70;99.90;;;;;;4997409;28;19909;-79
2023/06/24 09:53:46;;;;;;;;;;;28.10;99.90;;;;;;5014360;28;19920;-79
2023/06/24 09:56:15;;;;;;;;;;;28.50;99.90;;;;;;5037359;28;19916;-79
2023/06/24 09:58:46;;;;;;;;;;;29.30;99.90;;;;;;5000433;28;20450;-80
2023/06/24 10:01:20;;;;;;;;;;;29.90;99.80;;;;;;5019394;28;20007;-79
2023/06/24 10:03:47;;;;;;;;;;;30.40;99.10;;;;;;5032789;28;20008;-79
2023/06/24 10:06:21;;;;;;;;;;;30.90;97.90;;;;;;5003217;28;19912;-79
2023/06/24 10:08:53;;;;;;;;;;;31.20;98.30;;;;;;5003527;28;19947;-79
2023/06/24 10:11:22;;;;;;;;;;;31.50;98.40;;;;;;5020776;28;20008;-80
2023/06/24 10:13:50;;;;;;;;;;;31.90;98.30;;;;;;5017868;28;19917;-80
2023/06/24 10:16:30;;;;;;;;;;;32.00;97.20;;;;;;5016212;28;20375;-80
2023/06/24 10:19:05;;;;;;;;;;;32.00;97.30;;;;;;5020935;28;19909;-80
2023/06/24 10:21:45;;;;;;;;;;;32.00;97.00;;;;;;5019012;28;19913;-80
2023/06/24 10:24:11;;;;;;;;;;;32.10;97.10;;;;;;4997324;28;19940;-80
2023/06/24 10:26:36;;;;;;;;;;;32.50;97.10;;;;;;4996275;28;20324;-80
2023/06/24 10:29:05;;;;;;;;;;;32.70;96.80;;;;;;5034098;28;20384;-79
2023/06/24 10:31:42;;;;;;;;;;;32.80;96.80;;;;;;5021080;28;19909;-80
2023/06/24 10:34:23;;;;;;;;;;;33.10;96.80;;;;;;5002535;28;19916;-80
2023/06/24 10:36:59;;;;;;;;;;;33.50;96.50;;;;;;5014101;28;20403;-79
2023/06/24 10:39:43;;;;;;;;;;;33.70;96.30;;;;;;4996842;28;20280;-80
2023/06/24 10:42:28;;;;;;;;;;;34.00;96.20;;;;;;5018838;28;19909;-79
2023/06/24 10:44:57;;;;;;;;;;;34.10;95.60;;;;;;5035066;28;19940;-79
2023/06/24 10:47:23;;;;;;;;;;;34.00;95.00;;;;;;5019156;28;19925;-79
2023/06/24 10:49:49;;;;;;;;;;;34.00;95.00;;;;;;5033835;28;20004;-79
2023/06/24 10:52:18;;;;;;;;;;;34.00;94.70;;;;;;4998143;28;20314;-80
2023/06/24 10:54:43;;;;;;;;;;;34.30;94.60;;;;;;5011967;28;19975;-80
2023/06/24 10:57:11;;;;;;;;;;;34.70;94.70;;;;;;5019848;28;19939;-79
2023/06/24 10:59:41;;;;;;;;;;;34.60;94.20;;;;;;5003020;28;19952;-79
2023/06/24 11:02:12;;;;;;;;;;;34.60;93.10;;;;;;5000982;28;20385;-79
2023/06/24 11:04:48;;;;;;;;;;;34.30;93.30;;;;;;5003203;28;19925;-79
2023/06/24 11:07:14;;;;;;;;;;;34.10;93.10;;;;;;5020477;28;19921;-80
2023/06/24 11:09:41;;;;;;;;;;;34.30;93.30;;;;;;5037632;28;19918;-79
2023/06/24 11:12:08;;;;;;;;;;;34.50;93.30;;;;;;5017340;28;19971;-81
2023/06/24 11:14:36;;;;;;;;;;;34.70;93.00;;;;;;4997328;28;20002;-79
2023/06/24 11:17:02;;;;;;;;;;;34.60;92.70;;;;;;5020797;28;20324;-81
2023/06/24 11:19:29;;;;;;;;;;;34.50;92.70;;;;;;5023715;28;19995;-80
2023/06/24 11:21:56;;;;;;;;;;;34.70;92.50;;;;;;5004068;28;19917;-79
2023/06/24 11:24:22;;;;;;;;;;;35.10;92.50;;;;;;5020837;28;19913;-80
2023/06/24 11:26:47;;;;;;;;;;;35.20;92.60;;;;;;5001795;28;19944;-79
2023/06/24 11:29:13;;;;;;;;;;;35.20;92.30;;;;;;5024325;28;20715;-79
2023/06/24 11:31:39;;;;;;;;;;;35.00;92.20;;;;;;5024414;28;20301;-80
2023/06/24 11:34:04;;;;;;;;;;;34.90;92.20;;;;;;5007003;28;19913;-79
2023/06/24 11:36:31;;;;;;;;;;;35.00;91.90;;;;;;5024724;28;19909;-78
2023/06/24 11:38:57;;;;;;;;;;;34.90;91.50;;;;;;5006864;28;20004;-79
2023/06/24 11:41:25;;;;;;;;;;;34.80;91.30;;;;;;5025803;28;19959;-78
2023/06/24 11:43:51;;;;;;;;;;;34.60;91.10;;;;;;5007462;28;19920;-78
2023/06/24 11:46:20;;;;;;;;;;;34.70;91.10;;;;;;5020012;28;19921;-79
2023/06/24 11:48:46;;;;;;;;;;;34.60;90.90;;;;;;5025293;28;19928;-78
2023/06/24 11:51:15;;;;;;;;;;;34.70;91.10;;;;;;5024755;28;20927;-79
2023/06/24 11:53:42;;;;;;;;;;;34.90;90.80;;;;;;5002796;28;19909;-79
2023/06/24 11:56:08;;;;;;;;;;;34.80;90.00;;;;;;5022533;28;19924;-78
2023/06/24 11:58:38;;;;;;;;;;;34.70;90.00;;;;;;5025865;28;19913;-79
2023/06/24 12:01:06;;;;;;;;;;;34.90;87.80;;;;;;5038900;28;19921;-78
2023/06/24 12:03:33;;;;;;;;;;;35.10;88.50;;;;;;5022080;28;19983;-79
2023/06/24 12:05:59;;;;;;;;;;;35.50;88.00;;;;;;5020299;28;21412;-79
2023/06/24 12:08:24;;;;;;;;;;;35.80;85.30;;;;;;5003272;28;19921;-78
2023/06/24 12:10:50;;;;;;;;;;;35.70;85.80;;;;;;5038116;28;19927;-78
2023/06/24 12:13:15;;;;;;;;;;;35.70;86.00;;;;;;5039507;28;19916;-78
2023/06/24 12:15:44;;;;;;;;;;;35.80;85.10;;;;;;5023602;28;21872;-79
2023/06/24 12:18:12;;;;;;;;;;;36.10;85.00;;;;;;5023462;28;19913;-79
2023/06/24 12:20:37;;;;;;;;;;;36.50;84.60;;;;;;5017635;28;19943;-79
2023/06/24 12:23:06;;;;;;;;;;;36.90;84.20;;;;;;4999323;28;19913;-79
2023/06/24 12:25:31;;;;;;;;;;;37.10;82.20;;;;;;5019527;28;19959;-78
2023/06/24 12:27:59;;;;;;;;;;;36.90;82.70;;;;;;5020701;28;20020;-79
2023/06/24 12:30:24;;;;;;;;;;;37.10;82.60;;;;;;5023482;28;19925;-78
2023/06/24 12:32:51;;;;;;;;;;;37.40;83.00;;;;;;5023280;28;20003;-79
2023/06/24 12:35:17;;;;;;;;;;;37.40;81.80;;;;;;5020761;28;20373;-79
2023/06/24 12:37:44;;;;;;;;;;;37.20;81.70;;;;;;5002443;28;19912;-79
2023/06/24 12:40:13;;;;;;;;;;;37.10;81.90;;;;;;5015767;28;19942;-79
2023/06/24 12:42:38;;;;;;;;;;;37.10;82.50;;;;;;5016206;28;20373;-79
2023/06/24 12:45:04;;;;;;;;;;;37.20;82.30;;;;;;4997261;28;19939;-79
2023/06/24 12:47:36;;;;;;;;;;;37.30;81.00;;;;;;5037623;28;19961;-79
2023/06/24 12:50:06;;;;;;;;;;;37.40;80.00;;;;;;5036402;28;19920;-79
2023/06/24 12:52:31;;;;;;;;;;;37.50;79.50;;;;;;5023573;28;19913;-79
2023/06/24 12:54:57;;;;;;;;;;;37.50;79.00;;;;;;5038269;28;19913;-79
2023/06/24 12:57:22;;;;;;;;;;;37.30;78.50;;;;;;5023188;28;20372;-79
2023/06/24 12:59:50;;;;;;;;;;;37.30;78.70;;;;;;4999475;28;19917;-79
2023/06/24 13:02:16;;;;;;;;;;;37.20;78.80;;;;;;5022635;28;20463;-79
2023/06/24 13:04:44;;;;;;;;;;;37.20;79.40;;;;;;5004552;28;19917;-79
2023/06/24 13:07:13;;;;;;;;;;;37.30;79.50;;;;;;5018692;28;19917;-79
2023/06/24 13:09:41;;;;;;;;;;;37.30;78.90;;;;;;5036796;28;19923;-80
2023/06/24 13:12:09;;;;;;;;;;;37.50;78.70;;;;;;4997192;28;19967;-79
2023/06/24 13:14:37;;;;;;;;;;;37.60;77.80;;;;;;4999108;28;19913;-79
2023/06/24 13:17:03;;;;;;;;;;;37.80;76.40;;;;;;5002434;28;20052;-79
2023/06/24 13:19:34;;;;;;;;;;;37.80;75.10;;;;;;4998357;28;19917;-78
2023/06/24 13:22:00;;;;;;;;;;;37.40;75.40;;;;;;5018408;28;19913;-78
2023/06/24 13:24:26;;;;;;;;;;;37.10;75.60;;;;;;5021943;28;19913;-78
2023/06/24 13:26:56;;;;;;;;;;;37.20;76.10;;;;;;5021078;28;19925;-78
2023/06/24 13:29:22;;;;;;;;;;;37.40;75.80;;;;;;4997957;28;20015;-78
2023/06/24 13:32:10;;;;;;;;;;;37.10;74.80;;;;;;5020218;28;19912;-78
2023/06/24 13:34:39;;;;;;;;;;;36.80;74.10;;;;;;5020964;28;20012;-78
2023/06/24 13:37:04;;;;;;;;;;;36.60;74.30;;;;;;5022125;28;20423;-77
2023/06/24 13:39:30;;;;;;;;;;;36.60;74.10;;;;;;5021686;28;19984;-78
2023/06/24 13:41:56;;;;;;;;;;;36.70;73.10;;;;;;5019848;28;19917;-78
2023/06/24 13:44:22;;;;;;;;;;;36.60;74.20;;;;;;4999947;28;20315;-78
2023/06/24 13:46:49;;;;;;;;;;;36.70;74.90;;;;;;5022103;28;19924;-77
2023/06/24 13:49:23;;;;;;;;;;;36.70;75.00;;;;;;5021369;28;19913;-78
2023/06/24 13:51:52;;;;;;;;;;;36.70;75.20;;;;;;4997987;28;20011;-77
2023/06/24 13:54:21;;;;;;;;;;;36.70;75.60;;;;;;5035832;28;19913;-78
2023/06/24 13:56:46;;;;;;;;;;;36.80;76.10;;;;;;4999368;28;19913;-78
2023/06/24 13:59:18;;;;;;;;;;;36.90;75.60;;;;;;5002505;28;20402;-77
2023/06/24 14:01:49;;;;;;;;;;;37.00;75.40;;;;;;4997966;28;19917;-78
2023/06/24 14:04:15;;;;;;;;;;;37.20;76.50;;;;;;4998857;28;19924;-78
2023/06/24 14:06:46;;;;;;;;;;;37.40;76.10;;;;;;5019362;28;19912;-77
2023/06/24 14:09:11;;;;;;;;;;;37.50;76.70;;;;;;4998334;28;19924;-77
2023/06/24 14:11:40;;;;;;;;;;;37.70;76.90;;;;;;5016081;28;19913;-77
2023/06/24 14:14:09;;;;;;;;;;;37.30;72.40;;;;;;5016592;28;19909;-77
2023/06/24 14:16:40;;;;;;;;;;;36.70;73.60;;;;;;5006977;28;19963;-77
2023/06/24 14:19:08;;;;;;;;;;;36.60;74.40;;;;;;5018937;28;19913;-77